createdAt,value
2023-02-01T00:00:34.277Z,68.10
2023-02-01T00:03:02.367Z,68.30
2023-02-01T00:05:29.328Z,68.40
2023-02-01T00:07:56.347Z,68.40
2023-02-01T00:10:23.661Z,68.50
2023-02-01T00:12:50.789Z,68.90
2023-02-01T00:15:17.815Z,69.20
2023-02-01T00:17:44.746Z,69.40
2023-02-01T00:20:12.211Z,69.70
2023-02-01T00:22:39.202Z,69.70
2023-02-01T00:25:06.855Z,69.80
2023-02-01T00:27:33.796Z,69.90
2023-02-01T00:30:00.849Z,69.70
2023-02-01T00:32:27.780Z,69.60
2023-02-01T00:34:54.799Z,69.20
2023-02-01T00:37:22.635Z,69.10
2023-02-01T00:39:50.698Z,69.10
2023-02-01T00:42:17.669Z,69.10
2023-02-01T00:44:44.682Z,68.90
2023-02-01T00:47:11.836Z,68.80
2023-02-01T00:49:38.808Z,68.70
2023-02-01T00:52:05.951Z,68.70
2023-02-01T00:54:33.910Z,68.60
2023-02-01T00:57:00.839Z,68.60
2023-02-01T00:59:27.839Z,68.70
2023-02-01T01:01:55.886Z,68.70
2023-02-01T01:04:23.275Z,68.80
2023-02-01T01:06:50.280Z,68.80
2023-02-01T01:09:17.208Z,68.80
2023-02-01T01:11:44.324Z,69.00
2023-02-01T01:14:11.901Z,69.20
2023-02-01T01:16:39.031Z,69.40
2023-02-01T01:19:06.581Z,69.40
2023-02-01T01:21:34.730Z,69.50
2023-02-01T01:24:01.934Z,69.30
2023-02-01T01:26:30.508Z,69.50
2023-02-01T01:28:59.306Z,69.80
2023-02-01T01:31:27.452Z,69.80
2023-02-01T01:33:56.714Z,69.80
2023-02-01T01:36:24.365Z,70.00
2023-02-01T01:38:51.684Z,70.00
2023-02-01T01:41:22.723Z,69.80
2023-02-01T01:43:53.546Z,69.60
2023-02-01T01:46:33.955Z,69.60
2023-02-01T01:49:13.020Z,69.60
2023-02-01T01:51:49.950Z,69.50
2023-02-01T01:54:26.561Z,70.20
2023-02-01T01:57:00.122Z,69.40
2023-02-01T01:59:27.997Z,69.30
2023-02-01T02:01:56.920Z,69.30
2023-02-01T02:04:24.758Z,69.20
2023-02-01T02:07:00.717Z,69.00
2023-02-01T02:09:27.768Z,68.90
2023-02-01T02:11:54.766Z,68.70
2023-02-01T02:14:24.440Z,68.60
2023-02-01T02:17:09.274Z,68.70
2023-02-01T02:19:57.739Z,68.90
2023-02-01T02:22:48.837Z,69.00
2023-02-01T02:25:27.909Z,68.90
2023-02-01T02:28:22.332Z,68.90
2023-02-01T02:31:20.634Z,69.00
2023-02-01T02:34:02.277Z,69.10
2023-02-01T02:36:34.493Z,69.00
2023-02-01T02:39:28.094Z,69.20
2023-02-01T02:42:36.226Z,69.30
2023-02-01T02:45:28.970Z,69.20
2023-02-01T02:47:57.880Z,69.20
2023-02-01T02:50:53.805Z,69.40
2023-02-01T02:54:12.448Z,69.60
2023-02-01T02:56:59.273Z,69.40
2023-02-01T02:59:47.688Z,70.20
2023-02-01T03:02:34.694Z,69.50
2023-02-01T03:05:01.821Z,69.20
2023-02-01T03:07:50.431Z,69.00
2023-02-01T03:10:52.628Z,69.10
2023-02-01T03:13:25.107Z,69.00
2023-02-01T03:16:11.105Z,69.00
2023-02-01T03:18:53.608Z,69.20
2023-02-01T03:21:32.394Z,69.30
2023-02-01T03:24:05.867Z,69.40
2023-02-01T03:26:34.666Z,69.50
2023-02-01T03:29:10.134Z,69.30
2023-02-01T03:31:37.704Z,69.40
2023-02-01T03:34:05.348Z,69.30
2023-02-01T03:36:40.128Z,69.50
2023-02-01T03:39:20.107Z,69.80
2023-02-01T03:41:56.674Z,70.00
2023-02-01T03:44:25.559Z,70.00
2023-02-01T03:46:55.244Z,70.10
2023-02-01T03:49:30.631Z,70.20
2023-02-01T03:52:00.821Z,70.30
2023-02-01T03:54:29.631Z,70.30
2023-02-01T03:57:00.771Z,70.50
2023-02-01T03:59:27.747Z,70.80
2023-02-01T04:01:54.734Z,70.80
2023-02-01T04:04:21.866Z,70.80
2023-02-01T04:06:53.204Z,70.80
2023-02-01T04:09:21.091Z,70.80
2023-02-01T04:11:48.028Z,71.00
2023-02-01T04:14:14.988Z,71.00
2023-02-01T04:16:41.904Z,71.00
2023-02-01T04:19:09.067Z,71.10
2023-02-01T04:21:36.019Z,71.30
2023-02-01T04:24:02.994Z,71.40
2023-02-01T04:26:30.029Z,71.60
2023-02-01T04:28:57.058Z,71.90
2023-02-01T04:31:26.703Z,72.00
2023-02-01T04:33:55.190Z,72.20
2023-02-01T04:36:23.274Z,73.30
2023-02-01T04:38:51.398Z,73.10
2023-02-01T04:41:23.798Z,73.40
2023-02-01T04:43:53.064Z,74.00
2023-02-01T04:46:20.091Z,74.10
2023-02-01T04:48:47.094Z,74.10
2023-02-01T04:51:14.254Z,74.10
2023-02-01T04:53:41.221Z,74.00
2023-02-01T04:56:08.987Z,74.00
2023-02-01T04:58:35.912Z,74.40
2023-02-01T05:01:07.628Z,73.80
2023-02-01T05:03:35.003Z,73.80
2023-02-01T05:06:02.047Z,73.80
2023-02-01T05:08:29.827Z,73.70
2023-02-01T05:10:56.857Z,74.40
2023-02-01T05:13:42.228Z,73.70
2023-02-01T05:16:09.329Z,73.60
2023-02-01T05:18:36.329Z,73.70
2023-02-01T05:21:03.551Z,74.00
2023-02-01T05:23:30.706Z,74.20
2023-02-01T05:26:01.741Z,74.50
2023-02-01T05:28:29.379Z,74.60
2023-02-01T05:30:56.500Z,74.70
2023-02-01T05:33:23.495Z,74.80
2023-02-01T05:35:51.507Z,75.10
2023-02-01T05:38:18.569Z,75.00
2023-02-01T05:40:50.592Z,75.10
2023-02-01T05:43:17.899Z,75.20
2023-02-01T05:45:44.863Z,75.10
2023-02-01T05:48:11.866Z,75.00
2023-02-01T05:50:38.931Z,74.80
2023-02-01T05:53:09.649Z,74.80
2023-02-01T05:55:37.797Z,74.90
2023-02-01T05:58:05.778Z,75.00
2023-02-01T06:00:33.021Z,74.90
2023-02-01T06:03:00.209Z,74.80
2023-02-01T06:05:27.152Z,74.70
2023-02-01T06:07:54.287Z,74.70
2023-02-01T06:10:21.605Z,75.00
2023-02-01T06:12:48.903Z,75.20
2023-02-01T06:15:19.512Z,75.80
2023-02-01T06:17:47.061Z,76.10
2023-02-01T06:20:15.964Z,76.20
2023-02-01T06:22:43.020Z,76.50
2023-02-01T06:25:11.532Z,76.50
2023-02-01T06:27:38.903Z,76.40
2023-02-01T06:30:07.456Z,76.50
2023-02-01T06:32:35.613Z,76.60
2023-02-01T06:35:02.636Z,76.70
2023-02-01T06:37:30.524Z,76.70
2023-02-01T06:39:57.611Z,76.70
2023-02-01T06:42:24.575Z,76.70
2023-02-01T06:44:52.692Z,76.60
2023-02-01T06:47:19.907Z,76.80
2023-02-01T06:49:46.855Z,76.60
2023-02-01T06:52:13.751Z,76.50
2023-02-01T06:54:40.721Z,76.50
2023-02-01T06:57:07.680Z,76.50
2023-02-01T06:59:34.769Z,76.40
2023-02-01T07:02:01.876Z,76.40
2023-02-01T07:04:28.955Z,76.60
2023-02-01T07:06:55.916Z,76.60
2023-02-01T07:09:22.936Z,76.60
2023-02-01T07:11:49.964Z,76.50
2023-02-01T07:14:17.056Z,76.50
2023-02-01T07:16:43.997Z,76.40
2023-02-01T07:19:11.112Z,76.50
2023-02-01T07:21:38.056Z,76.60
2023-02-01T07:24:05.680Z,76.80
2023-02-01T07:26:33.479Z,77.10
2023-02-01T07:29:00.982Z,76.00
2023-02-01T07:31:30.053Z,74.00
2023-02-01T07:33:58.758Z,71.00
2023-02-01T07:36:26.146Z,68.40
2023-02-01T07:38:56.516Z,66.00
2023-02-01T07:41:24.961Z,63.60
2023-02-01T07:43:54.322Z,61.20
2023-02-01T07:46:21.194Z,59.00
2023-02-01T07:48:48.025Z,56.90
2023-02-01T07:51:17.371Z,55.30
2023-02-01T07:53:45.289Z,53.20
2023-02-01T07:56:19.074Z,52.50
2023-02-01T07:58:55.637Z,51.50
2023-02-01T08:01:27.415Z,50.80
2023-02-01T08:04:00.405Z,49.30
2023-02-01T08:06:28.906Z,49.20
2023-02-01T08:08:56.421Z,48.90
2023-02-01T08:11:25.108Z,48.20
2023-02-01T08:13:52.467Z,47.80
2023-02-01T08:16:20.825Z,48.30
2023-02-01T08:18:47.908Z,48.50
2023-02-01T08:21:24.268Z,49.00
2023-02-01T08:23:51.360Z,48.90
2023-02-01T08:26:22.837Z,49.80
2023-02-01T08:28:52.929Z,50.30
2023-02-01T08:31:22.354Z,50.80
2023-02-01T08:33:52.896Z,51.90
2023-02-01T08:36:21.076Z,52.20
2023-02-01T08:38:48.120Z,52.30
2023-02-01T08:41:18.116Z,53.10
2023-02-01T08:43:46.316Z,53.10
2023-02-01T08:46:13.596Z,52.90
2023-02-01T08:48:42.181Z,52.90
2023-02-01T08:51:12.255Z,52.90
2023-02-01T08:53:42.275Z,53.00
2023-02-01T08:56:13.878Z,52.80
2023-02-01T08:58:41.607Z,51.70
2023-02-01T09:01:11.899Z,51.30
2023-02-01T09:03:38.949Z,50.60
2023-02-01T09:06:11.823Z,49.90
2023-02-01T09:08:40.333Z,49.40
2023-02-01T09:11:12.633Z,48.30
2023-02-01T09:13:39.692Z,47.10
2023-02-01T09:16:07.214Z,45.90
2023-02-01T09:18:34.807Z,44.40
2023-02-01T09:21:06.660Z,43.10
2023-02-01T09:23:34.044Z,41.90
2023-02-01T09:26:05.339Z,42.20
2023-02-01T09:28:33.268Z,41.30
2023-02-01T09:31:01.450Z,39.40
2023-02-01T09:33:29.847Z,39.50
2023-02-01T09:36:03.009Z,38.40
2023-02-01T09:38:31.056Z,37.60
2023-02-01T09:40:59.669Z,37.50
2023-02-01T09:43:50.941Z,37.30
2023-02-01T09:46:33.531Z,36.50
2023-02-01T09:49:25.137Z,35.60
2023-02-01T09:51:53.549Z,35.10
2023-02-01T09:54:25.084Z,35.10
2023-02-01T09:57:05.764Z,35.10
2023-02-01T09:59:38.724Z,34.60
2023-02-01T10:02:11.804Z,34.80
2023-02-01T10:04:38.795Z,34.40
2023-02-01T10:07:21.575Z,34.20
2023-02-01T10:10:33.394Z,33.50
2023-02-01T10:13:11.851Z,33.10
2023-02-01T10:15:38.690Z,33.60
2023-02-01T10:18:11.009Z,34.30
2023-02-01T10:20:41.036Z,34.70
2023-02-01T10:23:33.333Z,34.60
2023-02-01T10:26:04.419Z,35.10
2023-02-01T10:28:34.597Z,34.90
2023-02-01T10:31:02.504Z,34.60
2023-02-01T10:33:37.378Z,34.60
2023-02-01T10:36:14.952Z,35.10
2023-02-01T10:38:41.764Z,36.00
2023-02-01T10:41:16.316Z,36.40
2023-02-01T10:43:44.186Z,37.20
2023-02-01T10:46:11.108Z,37.80
2023-02-01T10:48:39.116Z,37.70
2023-02-01T10:51:12.010Z,37.10
2023-02-01T10:53:47.734Z,36.10
2023-02-01T10:56:14.764Z,36.00
2023-02-01T10:58:45.723Z,36.10
2023-02-01T11:01:20.993Z,36.00
2023-02-01T11:03:47.843Z,35.30
2023-02-01T11:06:17.381Z,34.70
2023-02-01T11:08:48.883Z,34.80
2023-02-01T11:11:15.743Z,34.90
2023-02-01T11:13:42.904Z,34.60
2023-02-01T11:16:15.632Z,34.70
2023-02-01T11:18:42.544Z,34.70
2023-02-01T11:21:10.422Z,34.80
2023-02-01T11:23:41.720Z,35.30
2023-02-01T11:26:15.057Z,34.40
2023-02-01T11:28:46.537Z,34.10
2023-02-01T11:31:14.072Z,34.40
2023-02-01T11:33:44.183Z,34.80
2023-02-01T11:36:14.804Z,34.50
2023-02-01T11:38:46.987Z,34.50
2023-02-01T11:41:28.979Z,34.20
2023-02-01T11:44:00.318Z,34.70
2023-02-01T11:46:32.149Z,34.50
2023-02-01T11:49:15.162Z,34.20
2023-02-01T11:51:48.252Z,34.30
2023-02-01T11:54:33.737Z,35.10
2023-02-01T11:57:26.813Z,36.30
2023-02-01T11:59:59.308Z,36.40
2023-02-01T12:02:46.740Z,36.70
2023-02-01T12:05:16.843Z,37.40
2023-02-01T12:07:52.565Z,38.50
2023-02-01T12:10:19.330Z,38.00
2023-02-01T12:13:02.619Z,37.90
2023-02-01T12:15:35.506Z,38.00
2023-02-01T12:18:05.187Z,38.10
2023-02-01T12:20:34.870Z,38.60
2023-02-01T12:23:07.502Z,38.60
2023-02-01T12:25:34.300Z,38.20
2023-02-01T12:28:04.202Z,37.80
2023-02-01T12:30:37.220Z,37.20
2023-02-01T12:33:04.076Z,37.50
2023-02-01T12:35:34.079Z,38.00
2023-02-01T12:38:04.165Z,38.10
2023-02-01T12:40:34.190Z,37.80
2023-02-01T12:43:10.732Z,38.20
2023-02-01T12:45:38.476Z,38.80
2023-02-01T12:48:23.794Z,39.10
2023-02-01T12:51:13.766Z,39.00
2023-02-01T12:53:43.505Z,39.20
2023-02-01T12:56:14.457Z,40.00
2023-02-01T12:58:46.712Z,39.80
2023-02-01T13:01:19.438Z,40.20
2023-02-01T13:03:58.589Z,40.10
2023-02-01T13:06:32.579Z,40.20
2023-02-01T13:09:05.455Z,40.30
2023-02-01T13:11:38.710Z,40.50
2023-02-01T13:14:20.686Z,40.80
2023-02-01T13:16:53.615Z,40.70
2023-02-01T13:19:29.166Z,41.00
2023-02-01T13:22:03.997Z,41.50
2023-02-01T13:24:33.730Z,42.10
2023-02-01T13:27:01.177Z,42.20
2023-02-01T13:29:29.716Z,42.70
2023-02-01T13:32:11.788Z,43.10
2023-02-01T13:34:38.625Z,42.90
2023-02-01T13:37:14.728Z,42.90
2023-02-01T13:39:46.094Z,43.50
2023-02-01T13:42:22.041Z,43.70
2023-02-01T13:44:51.363Z,43.40
2023-02-01T13:47:29.196Z,43.60
2023-02-01T13:49:58.013Z,43.30
2023-02-01T13:52:26.835Z,43.40
2023-02-01T13:55:04.504Z,44.00
2023-02-01T13:57:50.937Z,44.20
2023-02-01T14:00:32.041Z,43.80
2023-02-01T14:03:01.871Z,43.30
2023-02-01T14:05:31.729Z,43.20
2023-02-01T14:08:07.513Z,43.40
2023-02-01T14:10:56.811Z,43.80
2023-02-01T14:13:29.831Z,44.20
2023-02-01T14:16:05.666Z,44.60
2023-02-01T14:18:35.630Z,44.70
2023-02-01T14:21:23.702Z,45.00
2023-02-01T14:23:53.757Z,45.20
2023-02-01T14:26:22.475Z,44.70
2023-02-01T14:28:58.055Z,44.40
2023-02-01T14:31:41.269Z,44.30
2023-02-01T14:34:17.628Z,44.20
2023-02-01T14:36:57.161Z,44.00
2023-02-01T14:39:42.706Z,44.10
2023-02-01T14:42:15.502Z,44.40
2023-02-01T14:44:59.248Z,44.60
2023-02-01T14:47:28.822Z,44.90
2023-02-01T14:49:59.508Z,45.40
2023-02-01T14:52:36.904Z,45.60
2023-02-01T14:55:06.918Z,46.40
2023-02-01T14:57:35.675Z,47.10
2023-02-01T15:00:07.948Z,47.40
2023-02-01T15:02:36.195Z,47.40
2023-02-01T15:05:03.089Z,47.70
2023-02-01T15:07:30.282Z,47.90
2023-02-01T15:09:59.013Z,48.80
2023-02-01T15:12:28.629Z,50.10
2023-02-01T15:15:22.951Z,51.50
2023-02-01T15:17:58.540Z,53.40
2023-02-01T15:20:28.472Z,54.40
2023-02-01T15:23:06.668Z,55.30
2023-02-01T15:25:39.626Z,56.50
2023-02-01T15:28:11.485Z,57.40
2023-02-01T15:30:40.317Z,58.00
2023-02-01T15:33:16.051Z,58.80
2023-02-01T15:35:45.681Z,60.20
2023-02-01T15:38:24.685Z,60.10
2023-02-01T15:41:00.507Z,61.40
2023-02-01T15:43:29.408Z,61.90
2023-02-01T15:46:08.305Z,62.20
2023-02-01T15:48:55.668Z,63.10
2023-02-01T15:51:25.356Z,63.90
2023-02-01T15:54:20.862Z,63.90
2023-02-01T15:56:53.909Z,65.00
2023-02-01T15:59:26.662Z,65.00
2023-02-01T16:01:53.714Z,65.50
2023-02-01T16:04:26.654Z,65.90
2023-02-01T16:07:05.764Z,66.70
2023-02-01T16:09:42.161Z,67.40
2023-02-01T16:12:44.191Z,67.60
2023-02-01T16:15:11.163Z,68.30
2023-02-01T16:17:38.195Z,68.10
2023-02-01T16:20:05.546Z,68.80
2023-02-01T16:22:32.488Z,69.40
2023-02-01T16:24:59.440Z,70.00
2023-02-01T16:27:26.345Z,70.50
2023-02-01T16:29:56.847Z,70.80
2023-02-01T16:32:23.980Z,71.20
2023-02-01T16:34:50.998Z,71.40
2023-02-01T16:37:22.356Z,71.80
2023-02-01T16:39:49.536Z,72.30
2023-02-01T16:42:17.406Z,72.30
2023-02-01T16:44:44.805Z,72.70
2023-02-01T16:47:22.305Z,72.90
2023-02-01T16:49:50.366Z,73.40
2023-02-01T16:52:20.502Z,73.50
2023-02-01T16:54:48.471Z,74.00
2023-02-01T16:57:17.021Z,74.10
2023-02-01T16:59:45.772Z,74.30
2023-02-01T17:02:20.297Z,74.50
2023-02-01T17:04:49.555Z,74.80
2023-02-01T17:07:20.258Z,75.00
2023-02-01T17:09:48.351Z,75.40
2023-02-01T17:12:27.487Z,75.50
2023-02-01T17:14:55.376Z,76.40
2023-02-01T17:17:36.817Z,76.10
2023-02-01T17:20:07.131Z,76.20
2023-02-01T17:22:34.274Z,76.40
2023-02-01T17:25:01.246Z,76.60
2023-02-01T17:27:30.238Z,76.70
2023-02-01T17:29:57.309Z,77.00
2023-02-01T17:32:25.924Z,76.80
2023-02-01T17:34:54.157Z,77.00
2023-02-01T17:37:28.897Z,77.00
2023-02-01T17:39:57.270Z,77.40
2023-02-01T17:42:26.004Z,77.60
2023-02-01T17:44:56.792Z,77.60
2023-02-01T17:47:24.074Z,77.50
2023-02-01T17:49:56.345Z,77.60
2023-02-01T17:52:25.044Z,78.10
2023-02-01T17:54:54.127Z,77.90
2023-02-01T17:57:21.618Z,77.90
2023-02-01T17:59:48.997Z,78.00
2023-02-01T18:02:23.794Z,78.10
2023-02-01T18:04:51.960Z,78.30
2023-02-01T18:07:19.123Z,78.50
2023-02-01T18:09:46.097Z,78.50
2023-02-01T18:12:20.770Z,78.60
2023-02-01T18:14:47.884Z,78.70
2023-02-01T18:17:15.110Z,78.70
2023-02-01T18:19:42.057Z,78.80
2023-02-01T18:22:19.882Z,79.10
2023-02-01T18:24:46.815Z,79.20
2023-02-01T18:27:13.866Z,79.20
2023-02-01T18:29:40.850Z,79.30
2023-02-01T18:32:10.715Z,79.30
2023-02-01T18:34:37.649Z,79.30
2023-02-01T18:37:04.797Z,79.10
2023-02-01T18:39:31.769Z,78.90
2023-02-01T18:41:59.131Z,78.50
2023-02-01T18:44:26.182Z,78.30
2023-02-01T18:46:53.197Z,78.10
2023-02-01T18:49:20.188Z,78.00
2023-02-01T18:51:47.123Z,77.90
2023-02-01T18:54:14.291Z,77.80
2023-02-01T18:56:42.895Z,77.80
2023-02-01T18:59:11.741Z,77.50
2023-02-01T19:01:38.934Z,77.40
2023-02-01T19:04:11.994Z,77.30
2023-02-01T19:06:46.204Z,77.50
2023-02-01T19:09:13.054Z,77.60
2023-02-01T19:11:39.872Z,78.00
2023-02-01T19:14:07.096Z,78.00
2023-02-01T19:16:36.114Z,78.00
2023-02-01T19:19:03.162Z,78.10
2023-02-01T19:21:30.022Z,78.10
2023-02-01T19:23:57.061Z,78.40
2023-02-01T19:26:24.083Z,78.80
2023-02-01T19:28:50.904Z,79.10
2023-02-01T19:31:17.891Z,79.50
2023-02-01T19:33:45.072Z,79.70
2023-02-01T19:36:11.923Z,79.80
2023-02-01T19:38:38.889Z,79.90
2023-02-01T19:41:06.062Z,79.90
2023-02-01T19:43:33.276Z,80.10
2023-02-01T19:46:02.735Z,80.20
2023-02-01T19:48:31.596Z,80.20
2023-02-01T19:50:59.139Z,80.30
2023-02-01T19:53:27.829Z,80.20
2023-02-01T19:55:56.443Z,80.00
2023-02-01T19:58:23.644Z,80.00
2023-02-01T20:00:54.350Z,79.90
2023-02-01T20:03:21.466Z,80.00
2023-02-01T20:05:55.494Z,79.90
2023-02-01T20:08:22.878Z,79.80
2023-02-01T20:10:49.708Z,79.80
2023-02-01T20:13:16.739Z,79.70
2023-02-01T20:15:43.880Z,79.60
2023-02-01T20:18:10.935Z,79.60
2023-02-01T20:20:37.825Z,79.60
2023-02-01T20:23:06.390Z,79.40
2023-02-01T20:25:34.119Z,79.20
2023-02-01T20:28:00.974Z,78.80
2023-02-01T20:30:29.476Z,78.40
2023-02-01T20:32:56.579Z,78.10
2023-02-01T20:35:23.732Z,78.10
2023-02-01T20:37:51.841Z,78.20
2023-02-01T20:40:18.933Z,78.30
2023-02-01T20:42:45.886Z,78.20
2023-02-01T20:45:12.798Z,78.10
2023-02-01T20:47:41.488Z,78.00
2023-02-01T20:50:08.956Z,78.10
2023-02-01T20:52:35.882Z,78.10
2023-02-01T20:55:03.053Z,78.10
2023-02-01T20:57:29.924Z,77.90
2023-02-01T20:59:56.810Z,77.70
2023-02-01T21:02:24.508Z,77.60
2023-02-01T21:04:51.343Z,77.60
2023-02-01T21:07:18.232Z,77.70
2023-02-01T21:09:45.181Z,78.20
2023-02-01T21:12:12.062Z,79.20
2023-02-01T21:14:38.907Z,79.60
2023-02-01T21:17:05.783Z,79.70
2023-02-01T21:19:42.888Z,79.90
2023-02-01T21:22:11.201Z,79.90
2023-02-01T21:24:38.514Z,79.90
2023-02-01T21:27:05.379Z,80.40
2023-02-01T21:29:32.280Z,80.80
2023-02-01T21:31:59.339Z,81.30
2023-02-01T21:34:26.204Z,81.70
2023-02-01T21:36:53.330Z,81.80
2023-02-01T21:39:20.300Z,81.90
2023-02-01T21:42:05.880Z,81.70
2023-02-01T21:44:32.832Z,81.60
2023-02-01T21:46:59.710Z,81.40
2023-02-01T21:49:29.025Z,81.40
2023-02-01T21:51:56.759Z,81.10
2023-02-01T21:54:23.708Z,80.90
2023-02-01T21:56:50.651Z,80.80
2023-02-01T21:59:18.528Z,80.80
2023-02-01T22:01:46.720Z,80.80
2023-02-01T22:04:13.675Z,80.70
2023-02-01T22:06:45.939Z,80.70
2023-02-01T22:09:21.639Z,80.70
2023-02-01T22:11:49.745Z,80.70
2023-02-01T22:14:17.107Z,80.50
2023-02-01T22:16:44.611Z,80.50
2023-02-01T22:19:14.863Z,80.40
2023-02-01T22:21:43.658Z,80.10
2023-02-01T22:24:13.029Z,80.10
2023-02-01T22:26:40.623Z,79.90
2023-02-01T22:29:09.422Z,79.80
2023-02-01T22:31:36.529Z,79.60
2023-02-01T22:34:04.006Z,79.30
2023-02-01T22:36:31.814Z,79.10
2023-02-01T22:38:58.817Z,79.10
2023-02-01T22:41:25.762Z,79.00
2023-02-01T22:43:52.815Z,78.80
2023-02-01T22:46:42.545Z,78.60
2023-02-01T22:49:09.472Z,78.40
2023-02-01T22:51:36.507Z,78.00
2023-02-01T22:54:03.864Z,77.70
2023-02-01T22:56:37.644Z,77.40
2023-02-01T22:59:07.226Z,77.00
2023-02-01T23:01:35.099Z,76.80
2023-02-01T23:04:05.329Z,76.70
2023-02-01T23:06:33.245Z,76.60
2023-02-01T23:09:03.073Z,76.50
2023-02-01T23:11:30.094Z,76.30
2023-02-01T23:13:57.151Z,76.20
2023-02-01T23:16:24.538Z,75.90
2023-02-01T23:18:51.585Z,75.90
2023-02-01T23:21:21.576Z,75.90
2023-02-01T23:23:53.860Z,75.90
2023-02-01T23:26:21.786Z,75.80
2023-02-01T23:28:50.778Z,75.70
2023-02-01T23:31:17.966Z,75.60
2023-02-01T23:33:45.912Z,75.50
2023-02-01T23:36:16.037Z,75.60
2023-02-01T23:38:47.036Z,75.60
2023-02-01T23:41:16.419Z,75.60
2023-02-01T23:43:59.285Z,75.70
2023-02-01T23:46:29.893Z,75.80
2023-02-01T23:48:57.529Z,75.80
2023-02-01T23:51:25.463Z,75.70
2023-02-01T23:53:53.281Z,75.70
2023-02-01T23:56:23.535Z,75.50
2023-02-01T23:58:51.954Z,75.40
